sensor_id;sensor_type;location;lat;lon;timestamp;P1;durP1;ratioP1;P2;durP2;ratioP2
21326;SDS011;10822;51.532;6.770;2024-02-15T00:01:40;15.57;;;11.52;;
21326;SDS011;10822;51.532;6.770;2024-02-15T00:04:06;17.85;;;10.00;;
21326;SDS011;10822;51.532;6.770;2024-02-15T00:06:32;14.57;;;9.57;;
21326;SDS011;10822;51.532;6.770;2024-02-15T00:08:58;18.10;;;11.02;;
21326;SDS011;10822;51.532;6.770;2024-02-15T00:11:24;15.80;;;11.05;;
21326;SDS011;10822;51.532;6.770;2024-02-15T00:13:50;12.95;;;9.70;;
21326;SDS011;10822;51.532;6.770;2024-02-15T00:16:16;13.30;;;9.60;;
21326;SDS011;10822;51.532;6.770;2024-02-15T00:18:42;18.02;;;10.13;;
21326;SDS011;10822;51.532;6.770;2024-02-15T00:21:08;15.45;;;9.70;;
21326;SDS011;10822;51.532;6.770;2024-02-15T00:23:34;17.75;;;10.13;;
21326;SDS011;10822;51.532;6.770;2024-02-15T00:26:00;15.57;;;9.77;;
21326;SDS011;10822;51.532;6.770;2024-02-15T00:28:26;17.15;;;10.52;;
21326;SDS011;10822;51.532;6.770;2024-02-15T00:30:52;16.10;;;9.18;;
21326;SDS011;10822;51.532;6.770;2024-02-15T00:33:18;16.15;;;10.05;;
21326;SDS011;10822;51.532;6.770;2024-02-15T00:35:44;14.68;;;10.00;;
21326;SDS011;10822;51.532;6.770;2024-02-15T00:38:10;15.07;;;9.82;;
21326;SDS011;10822;51.532;6.770;2024-02-15T00:40:36;15.57;;;10.13;;
21326;SDS011;10822;51.532;6.770;2024-02-15T00:43:02;16.85;;;11.02;;
21326;SDS011;10822;51.532;6.770;2024-02-15T00:45:28;16.30;;;10.10;;
21326;SDS011;10822;51.532;6.770;2024-02-15T00:47:54;15.13;;;9.43;;
21326;SDS011;10822;51.532;6.770;2024-02-15T00:50:21;14.63;;;9.48;;
21326;SDS011;10822;51.532;6.770;2024-02-15T00:52:46;15.80;;;9.38;;
21326;SDS011;10822;51.532;6.770;2024-02-15T00:55:12;14.82;;;9.82;;
21326;SDS011;10822;51.532;6.770;2024-02-15T00:57:38;16.35;;;10.50;;
21326;SDS011;10822;51.532;6.770;2024-02-15T01:00:05;15.15;;;10.43;;
21326;SDS011;10822;51.532;6.770;2024-02-15T01:02:34;17.27;;;9.48;;
21326;SDS011;10822;51.532;6.770;2024-02-15T01:05:00;20.67;;;10.00;;
21326;SDS011;10822;51.532;6.770;2024-02-15T01:07:26;20.95;;;10.80;;
21326;SDS011;10822;51.532;6.770;2024-02-15T01:09:53;17.52;;;11.23;;
21326;SDS011;10822;51.532;6.770;2024-02-15T01:12:19;20.52;;;11.55;;
21326;SDS011;10822;51.532;6.770;2024-02-15T01:14:45;20.83;;;12.95;;
21326;SDS011;10822;51.532;6.770;2024-02-15T01:17:12;20.65;;;11.82;;
21326;SDS011;10822;51.532;6.770;2024-02-15T01:19:38;24.75;;;12.30;;
21326;SDS011;10822;51.532;6.770;2024-02-15T01:22:04;20.00;;;12.00;;
21326;SDS011;10822;51.532;6.770;2024-02-15T01:24:31;23.98;;;12.77;;
21326;SDS011;10822;51.532;6.770;2024-02-15T01:26:57;24.02;;;12.00;;
21326;SDS011;10822;51.532;6.770;2024-02-15T01:29:23;17.98;;;11.52;;
21326;SDS011;10822;51.532;6.770;2024-02-15T01:31:50;19.30;;;11.52;;
21326;SDS011;10822;51.532;6.770;2024-02-15T01:34:16;17.90;;;10.18;;
21326;SDS011;10822;51.532;6.770;2024-02-15T01:36:42;15.88;;;8.90;;
21326;SDS011;10822;51.532;6.770;2024-02-15T01:39:08;16.35;;;9.50;;
21326;SDS011;10822;51.532;6.770;2024-02-15T01:41:35;19.23;;;9.68;;
21326;SDS011;10822;51.532;6.770;2024-02-15T01:44:01;20.98;;;9.23;;
21326;SDS011;10822;51.532;6.770;2024-02-15T01:46:27;14.27;;;9.25;;
21326;SDS011;10822;51.532;6.770;2024-02-15T01:48:54;13.40;;;8.65;;
21326;SDS011;10822;51.532;6.770;2024-02-15T01:51:21;18.33;;;9.30;;
21326;SDS011;10822;51.532;6.770;2024-02-15T01:53:49;15.82;;;9.07;;
21326;SDS011;10822;51.532;6.770;2024-02-15T01:56:15;15.85;;;8.85;;
21326;SDS011;10822;51.532;6.770;2024-02-15T01:58:42;18.00;;;8.73;;
21326;SDS011;10822;51.532;6.770;2024-02-15T02:01:09;12.80;;;8.55;;
21326;SDS011;10822;51.532;6.770;2024-02-15T02:03:35;14.25;;;8.50;;
21326;SDS011;10822;51.532;6.770;2024-02-15T02:06:01;15.82;;;8.13;;
21326;SDS011;10822;51.532;6.770;2024-02-15T02:08:28;20.30;;;8.68;;
21326;SDS011;10822;51.532;6.770;2024-02-15T02:10:54;16.83;;;8.50;;
21326;SDS011;10822;51.532;6.770;2024-02-15T02:13:20;16.60;;;8.13;;
21326;SDS011;10822;51.532;6.770;2024-02-15T02:15:46;14.45;;;8.00;;
21326;SDS011;10822;51.532;6.770;2024-02-15T02:18:12;17.77;;;8.15;;
21326;SDS011;10822;51.532;6.770;2024-02-15T02:20:38;18.70;;;8.07;;
21326;SDS011;10822;51.532;6.770;2024-02-15T02:23:08;16.42;;;7.78;;
21326;SDS011;10822;51.532;6.770;2024-02-15T02:25:35;14.40;;;7.25;;
21326;SDS011;10822;51.532;6.770;2024-02-15T02:28:01;14.00;;;7.65;;
21326;SDS011;10822;51.532;6.770;2024-02-15T02:30:27;13.82;;;7.35;;
21326;SDS011;10822;51.532;6.770;2024-02-15T02:32:57;13.82;;;7.07;;
21326;SDS011;10822;51.532;6.770;2024-02-15T02:35:24;13.63;;;7.57;;
21326;SDS011;10822;51.532;6.770;2024-02-15T02:37:50;16.13;;;7.90;;
21326;SDS011;10822;51.532;6.770;2024-02-15T02:40:18;13.57;;;8.00;;
21326;SDS011;10822;51.532;6.770;2024-02-15T02:42:53;14.85;;;7.78;;
21326;SDS011;10822;51.532;6.770;2024-02-15T02:45:26;17.42;;;7.95;;
21326;SDS011;10822;51.532;6.770;2024-02-15T02:47:52;12.20;;;7.40;;
21326;SDS011;10822;51.532;6.770;2024-02-15T02:50:21;14.40;;;6.90;;
21326;SDS011;10822;51.532;6.770;2024-02-15T02:52:47;15.52;;;7.43;;
21326;SDS011;10822;51.532;6.770;2024-02-15T02:55:14;14.05;;;7.10;;
21326;SDS011;10822;51.532;6.770;2024-02-15T02:57:40;14.23;;;6.55;;
21326;SDS011;10822;51.532;6.770;2024-02-15T03:00:07;15.32;;;6.53;;
21326;SDS011;10822;51.532;6.770;2024-02-15T03:02:35;13.80;;;6.35;;
21326;SDS011;10822;51.532;6.770;2024-02-15T03:05:02;12.43;;;5.93;;
21326;SDS011;10822;51.532;6.770;2024-02-15T03:07:29;11.85;;;6.18;;
21326;SDS011;10822;51.532;6.770;2024-02-15T03:09:57;12.38;;;5.95;;
21326;SDS011;10822;51.532;6.770;2024-02-15T03:12:23;14.68;;;5.97;;
21326;SDS011;10822;51.532;6.770;2024-02-15T03:14:51;13.35;;;5.93;;
21326;SDS011;10822;51.532;6.770;2024-02-15T03:17:17;9.80;;;5.72;;
21326;SDS011;10822;51.532;6.770;2024-02-15T03:19:43;12.43;;;6.22;;
21326;SDS011;10822;51.532;6.770;2024-02-15T03:22:09;13.82;;;6.75;;
21326;SDS011;10822;51.532;6.770;2024-02-15T03:24:38;16.15;;;6.95;;
21326;SDS011;10822;51.532;6.770;2024-02-15T03:27:04;20.83;;;8.20;;
21326;SDS011;10822;51.532;6.770;2024-02-15T03:29:30;18.23;;;7.57;;
21326;SDS011;10822;51.532;6.770;2024-02-15T03:31:59;16.38;;;6.80;;
21326;SDS011;10822;51.532;6.770;2024-02-15T03:34:25;14.20;;;6.70;;
21326;SDS011;10822;51.532;6.770;2024-02-15T03:36:51;14.40;;;7.20;;
21326;SDS011;10822;51.532;6.770;2024-02-15T03:39:19;16.55;;;6.82;;
21326;SDS011;10822;51.532;6.770;2024-02-15T03:41:45;16.67;;;6.72;;
21326;SDS011;10822;51.532;6.770;2024-02-15T03:44:11;12.07;;;6.45;;
21326;SDS011;10822;51.532;6.770;2024-02-15T03:46:37;13.95;;;6.13;;
21326;SDS011;10822;51.532;6.770;2024-02-15T03:49:03;10.88;;;5.93;;
21326;SDS011;10822;51.532;6.770;2024-02-15T03:51:31;13.20;;;6.25;;
21326;SDS011;10822;51.532;6.770;2024-02-15T03:53:57;14.25;;;6.10;;
21326;SDS011;10822;51.532;6.770;2024-02-15T03:56:23;10.55;;;5.60;;
21326;SDS011;10822;51.532;6.770;2024-02-15T03:58:49;15.82;;;6.32;;
21326;SDS011;10822;51.532;6.770;2024-02-15T04:01:16;13.35;;;5.68;;
21326;SDS011;10822;51.532;6.770;2024-02-15T04:03:42;11.18;;;5.80;;
21326;SDS011;10822;51.532;6.770;2024-02-15T04:06:08;9.73;;;4.95;;
21326;SDS011;10822;51.532;6.770;2024-02-15T04:08:35;13.38;;;5.18;;
21326;SDS011;10822;51.532;6.770;2024-02-15T04:11:04;8.27;;;5.10;;
21326;SDS011;10822;51.532;6.770;2024-02-15T04:13:31;9.57;;;4.90;;
21326;SDS011;10822;51.532;6.770;2024-02-15T04:15:57;10.18;;;4.43;;
21326;SDS011;10822;51.532;6.770;2024-02-15T04:18:23;10.57;;;4.90;;
21326;SDS011;10822;51.532;6.770;2024-02-15T04:20:49;11.07;;;4.30;;
21326;SDS011;10822;51.532;6.770;2024-02-15T04:23:16;9.80;;;4.22;;
21326;SDS011;10822;51.532;6.770;2024-02-15T04:25:44;11.10;;;3.97;;
21326;SDS011;10822;51.532;6.770;2024-02-15T04:28:15;9.32;;;4.10;;
21326;SDS011;10822;51.532;6.770;2024-02-15T04:30:41;10.82;;;4.20;;
21326;SDS011;10822;51.532;6.770;2024-02-15T04:33:07;7.97;;;4.22;;
21326;SDS011;10822;51.532;6.770;2024-02-15T04:35:34;9.32;;;4.47;;
21326;SDS011;10822;51.532;6.770;2024-02-15T04:38:00;13.20;;;4.60;;
21326;SDS011;10822;51.532;6.770;2024-02-15T04:40:26;8.60;;;4.40;;
21326;SDS011;10822;51.532;6.770;2024-02-15T04:42:52;11.40;;;4.45;;
21326;SDS011;10822;51.532;6.770;2024-02-15T04:45:18;10.75;;;4.40;;
21326;SDS011;10822;51.532;6.770;2024-02-15T04:47:47;9.85;;;4.55;;
21326;SDS011;10822;51.532;6.770;2024-02-15T04:50:16;9.50;;;4.28;;
21326;SDS011;10822;51.532;6.770;2024-02-15T04:52:43;11.80;;;3.97;;
21326;SDS011;10822;51.532;6.770;2024-02-15T04:55:10;12.10;;;4.50;;
21326;SDS011;10822;51.532;6.770;2024-02-15T04:57:36;9.13;;;4.05;;
21326;SDS011;10822;51.532;6.770;2024-02-15T05:00:02;8.52;;;3.92;;
21326;SDS011;10822;51.532;6.770;2024-02-15T05:02:36;8.35;;;4.15;;
21326;SDS011;10822;51.532;6.770;2024-02-15T05:05:06;8.45;;;3.92;;
21326;SDS011;10822;51.532;6.770;2024-02-15T05:07:32;6.85;;;3.53;;
21326;SDS011;10822;51.532;6.770;2024-02-15T05:09:58;9.43;;;3.65;;
21326;SDS011;10822;51.532;6.770;2024-02-15T05:12:25;9.80;;;3.47;;
21326;SDS011;10822;51.532;6.770;2024-02-15T05:14:51;7.00;;;3.20;;
21326;SDS011;10822;51.532;6.770;2024-02-15T05:17:18;6.90;;;3.13;;
21326;SDS011;10822;51.532;6.770;2024-02-15T05:19:44;5.47;;;3.22;;
21326;SDS011;10822;51.532;6.770;2024-02-15T05:22:10;7.35;;;3.15;;
21326;SDS011;10822;51.532;6.770;2024-02-15T05:24:36;5.60;;;3.17;;
21326;SDS011;10822;51.532;6.770;2024-02-15T05:27:04;8.60;;;3.33;;
21326;SDS011;10822;51.532;6.770;2024-02-15T05:29:31;7.22;;;3.50;;
21326;SDS011;10822;51.532;6.770;2024-02-15T05:32:01;6.53;;;3.30;;
21326;SDS011;10822;51.532;6.770;2024-02-15T05:34:27;6.75;;;3.30;;
21326;SDS011;10822;51.532;6.770;2024-02-15T05:36:56;5.45;;;3.28;;
21326;SDS011;10822;51.532;6.770;2024-02-15T05:39:22;6.63;;;3.55;;
21326;SDS011;10822;51.532;6.770;2024-02-15T05:41:48;7.22;;;3.63;;
21326;SDS011;10822;51.532;6.770;2024-02-15T05:44:14;5.65;;;3.10;;
21326;SDS011;10822;51.532;6.770;2024-02-15T05:46:45;7.45;;;3.45;;
21326;SDS011;10822;51.532;6.770;2024-02-15T05:49:12;6.60;;;3.35;;
21326;SDS011;10822;51.532;6.770;2024-02-15T05:51:42;7.70;;;3.65;;
21326;SDS011;10822;51.532;6.770;2024-02-15T05:54:08;7.38;;;4.00;;
21326;SDS011;10822;51.532;6.770;2024-02-15T05:56:34;8.88;;;3.92;;
21326;SDS011;10822;51.532;6.770;2024-02-15T05:59:00;8.55;;;3.95;;
21326;SDS011;10822;51.532;6.770;2024-02-15T06:01:27;5.15;;;3.42;;
21326;SDS011;10822;51.532;6.770;2024-02-15T06:03:54;5.63;;;3.50;;
21326;SDS011;10822;51.532;6.770;2024-02-15T06:06:21;6.70;;;4.07;;
21326;SDS011;10822;51.532;6.770;2024-02-15T06:08:48;6.60;;;3.83;;
21326;SDS011;10822;51.532;6.770;2024-02-15T06:11:18;6.25;;;3.35;;
21326;SDS011;10822;51.532;6.770;2024-02-15T06:13:45;9.52;;;3.88;;
21326;SDS011;10822;51.532;6.770;2024-02-15T06:16:11;8.43;;;3.60;;
21326;SDS011;10822;51.532;6.770;2024-02-15T06:18:37;8.18;;;3.50;;
21326;SDS011;10822;51.532;6.770;2024-02-15T06:21:03;6.40;;;3.28;;
21326;SDS011;10822;51.532;6.770;2024-02-15T06:23:29;8.77;;;3.65;;
21326;SDS011;10822;51.532;6.770;2024-02-15T06:25:56;6.70;;;3.38;;
21326;SDS011;10822;51.532;6.770;2024-02-15T06:28:28;5.18;;;3.40;;
21326;SDS011;10822;51.532;6.770;2024-02-15T06:31:13;5.78;;;3.28;;
21326;SDS011;10822;51.532;6.770;2024-02-15T06:33:58;6.25;;;3.47;;
21326;SDS011;10822;51.532;6.770;2024-02-15T06:36:45;6.43;;;3.10;;
21326;SDS011;10822;51.532;6.770;2024-02-15T06:39:30;9.70;;;3.40;;
21326;SDS011;10822;51.532;6.770;2024-02-15T06:42:12;6.90;;;2.78;;
21326;SDS011;10822;51.532;6.770;2024-02-15T06:44:43;8.68;;;3.45;;
21326;SDS011;10822;51.532;6.770;2024-02-15T06:47:10;7.15;;;3.22;;
21326;SDS011;10822;51.532;6.770;2024-02-15T06:49:36;10.63;;;4.00;;
21326;SDS011;10822;51.532;6.770;2024-02-15T06:52:05;7.75;;;3.90;;
21326;SDS011;10822;51.532;6.770;2024-02-15T06:54:32;8.15;;;3.72;;
21326;SDS011;10822;51.532;6.770;2024-02-15T06:56:58;6.10;;;3.47;;
21326;SDS011;10822;51.532;6.770;2024-02-15T06:59:24;8.25;;;3.70;;
21326;SDS011;10822;51.532;6.770;2024-02-15T07:01:50;6.95;;;3.80;;
21326;SDS011;10822;51.532;6.770;2024-02-15T07:04:20;5.97;;;3.55;;
21326;SDS011;10822;51.532;6.770;2024-02-15T07:06:46;8.90;;;3.45;;
21326;SDS011;10822;51.532;6.770;2024-02-15T07:09:12;8.57;;;3.40;;
21326;SDS011;10822;51.532;6.770;2024-02-15T07:11:40;9.68;;;3.88;;
21326;SDS011;10822;51.532;6.770;2024-02-15T07:14:06;7.22;;;3.70;;
21326;SDS011;10822;51.532;6.770;2024-02-15T07:16:34;7.63;;;4.13;;
21326;SDS011;10822;51.532;6.770;2024-02-15T07:19:00;5.63;;;3.58;;
21326;SDS011;10822;51.532;6.770;2024-02-15T07:21:26;4.47;;;2.97;;
21326;SDS011;10822;51.532;6.770;2024-02-15T07:23:55;9.13;;;3.60;;
21326;SDS011;10822;51.532;6.770;2024-02-15T07:26:21;6.53;;;3.25;;
21326;SDS011;10822;51.532;6.770;2024-02-15T07:28:54;8.75;;;3.90;;
21326;SDS011;10822;51.532;6.770;2024-02-15T07:31:20;12.10;;;6.30;;
21326;SDS011;10822;51.532;6.770;2024-02-15T07:33:50;12.05;;;7.40;;
21326;SDS011;10822;51.532;6.770;2024-02-15T07:36:22;14.70;;;8.07;;
21326;SDS011;10822;51.532;6.770;2024-02-15T07:41:15;17.50;;;11.55;;
21326;SDS011;10822;51.532;6.770;2024-02-15T07:43:42;14.20;;;8.10;;
21326;SDS011;10822;51.532;6.770;2024-02-15T07:46:11;11.40;;;7.30;;
21326;SDS011;10822;51.532;6.770;2024-02-15T07:48:38;6.40;;;4.47;;
21326;SDS011;10822;51.532;6.770;2024-02-15T07:51:09;7.60;;;4.53;;
21326;SDS011;10822;51.532;6.770;2024-02-15T07:53:36;9.98;;;4.07;;
21326;SDS011;10822;51.532;6.770;2024-02-15T07:56:02;6.20;;;3.83;;
21326;SDS011;10822;51.532;6.770;2024-02-15T07:58:28;8.68;;;4.50;;
21326;SDS011;10822;51.532;6.770;2024-02-15T08:00:56;9.25;;;4.03;;
21326;SDS011;10822;51.532;6.770;2024-02-15T08:03:22;8.43;;;4.45;;
21326;SDS011;10822;51.532;6.770;2024-02-15T08:05:48;9.40;;;4.40;;
21326;SDS011;10822;51.532;6.770;2024-02-15T08:08:14;9.20;;;4.63;;
21326;SDS011;10822;51.532;6.770;2024-02-15T08:10:40;5.80;;;4.15;;
21326;SDS011;10822;51.532;6.770;2024-02-15T08:13:08;6.25;;;3.90;;
21326;SDS011;10822;51.532;6.770;2024-02-15T08:15:35;7.25;;;3.83;;
21326;SDS011;10822;51.532;6.770;2024-02-15T08:18:01;10.40;;;4.35;;
21326;SDS011;10822;51.532;6.770;2024-02-15T08:20:30;10.77;;;4.40;;
21326;SDS011;10822;51.532;6.770;2024-02-15T08:22:56;11.02;;;4.18;;
21326;SDS011;10822;51.532;6.770;2024-02-15T08:25:24;11.32;;;4.68;;
21326;SDS011;10822;51.532;6.770;2024-02-15T08:27:50;11.25;;;4.28;;
21326;SDS011;10822;51.532;6.770;2024-02-15T08:30:16;11.20;;;4.78;;
21326;SDS011;10822;51.532;6.770;2024-02-15T08:32:43;7.93;;;4.47;;
21326;SDS011;10822;51.532;6.770;2024-02-15T08:35:13;6.60;;;3.90;;
21326;SDS011;10822;51.532;6.770;2024-02-15T08:37:39;12.23;;;4.05;;
21326;SDS011;10822;51.532;6.770;2024-02-15T08:40:07;7.72;;;4.30;;
21326;SDS011;10822;51.532;6.770;2024-02-15T08:42:38;7.10;;;3.40;;
21326;SDS011;10822;51.532;6.770;2024-02-15T08:45:05;7.40;;;3.63;;
21326;SDS011;10822;51.532;6.770;2024-02-15T08:47:33;8.63;;;3.70;;
21326;SDS011;10822;51.532;6.770;2024-02-15T08:49:59;9.38;;;3.63;;
21326;SDS011;10822;51.532;6.770;2024-02-15T08:52:25;10.23;;;4.15;;
21326;SDS011;10822;51.532;6.770;2024-02-15T08:54:51;10.30;;;4.20;;
21326;SDS011;10822;51.532;6.770;2024-02-15T08:57:17;9.32;;;4.28;;
21326;SDS011;10822;51.532;6.770;2024-02-15T08:59:44;6.25;;;3.60;;
21326;SDS011;10822;51.532;6.770;2024-02-15T09:02:10;7.03;;;3.63;;
21326;SDS011;10822;51.532;6.770;2024-02-15T09:04:36;8.60;;;3.53;;
21326;SDS011;10822;51.532;6.770;2024-02-15T09:07:02;7.13;;;3.28;;
21326;SDS011;10822;51.532;6.770;2024-02-15T09:09:29;7.00;;;3.22;;
21326;SDS011;10822;51.532;6.770;2024-02-15T09:11:56;8.80;;;3.70;;
21326;SDS011;10822;51.532;6.770;2024-02-15T09:14:22;9.18;;;3.83;;
21326;SDS011;10822;51.532;6.770;2024-02-15T09:16:48;8.20;;;3.30;;
21326;SDS011;10822;51.532;6.770;2024-02-15T09:19:14;7.80;;;3.60;;
21326;SDS011;10822;51.532;6.770;2024-02-15T09:21:40;7.95;;;3.25;;
21326;SDS011;10822;51.532;6.770;2024-02-15T09:24:06;9.23;;;3.72;;
21326;SDS011;10822;51.532;6.770;2024-02-15T09:26:33;10.10;;;3.60;;
21326;SDS011;10822;51.532;6.770;2024-02-15T09:28:59;10.98;;;4.10;;
21326;SDS011;10822;51.532;6.770;2024-02-15T09:31:25;6.90;;;3.55;;
21326;SDS011;10822;51.532;6.770;2024-02-15T09:33:51;6.18;;;3.80;;
21326;SDS011;10822;51.532;6.770;2024-02-15T09:36:16;7.45;;;3.80;;
21326;SDS011;10822;51.532;6.770;2024-02-15T09:38:42;11.10;;;3.67;;
21326;SDS011;10822;51.532;6.770;2024-02-15T09:41:08;6.97;;;2.97;;
21326;SDS011;10822;51.532;6.770;2024-02-15T09:43:35;8.20;;;3.28;;
21326;SDS011;10822;51.532;6.770;2024-02-15T09:46:01;8.25;;;3.17;;
21326;SDS011;10822;51.532;6.770;2024-02-15T09:48:29;7.82;;;3.15;;
21326;SDS011;10822;51.532;6.770;2024-02-15T09:50:55;6.30;;;2.88;;
21326;SDS011;10822;51.532;6.770;2024-02-15T09:53:22;8.00;;;2.83;;
21326;SDS011;10822;51.532;6.770;2024-02-15T09:55:53;7.15;;;2.47;;
21326;SDS011;10822;51.532;6.770;2024-02-15T09:58:19;7.72;;;2.70;;
21326;SDS011;10822;51.532;6.770;2024-02-15T10:00:48;11.00;;;3.10;;
21326;SDS011;10822;51.532;6.770;2024-02-15T10:03:14;6.70;;;2.78;;
21326;SDS011;10822;51.532;6.770;2024-02-15T10:05:41;6.35;;;3.17;;
21326;SDS011;10822;51.532;6.770;2024-02-15T10:08:07;7.72;;;2.92;;
21326;SDS011;10822;51.532;6.770;2024-02-15T10:10:36;5.45;;;2.97;;
21326;SDS011;10822;51.532;6.770;2024-02-15T10:13:02;5.95;;;2.72;;
21326;SDS011;10822;51.532;6.770;2024-02-15T10:15:33;7.43;;;2.92;;
21326;SDS011;10822;51.532;6.770;2024-02-15T10:18:01;7.60;;;2.72;;
21326;SDS011;10822;51.532;6.770;2024-02-15T10:20:27;7.00;;;2.67;;
21326;SDS011;10822;51.532;6.770;2024-02-15T10:23:15;6.93;;;3.00;;
21326;SDS011;10822;51.532;6.770;2024-02-15T10:25:42;5.95;;;2.45;;
21326;SDS011;10822;51.532;6.770;2024-02-15T10:28:09;6.00;;;2.42;;
21326;SDS011;10822;51.532;6.770;2024-02-15T10:30:36;7.93;;;2.60;;
21326;SDS011;10822;51.532;6.770;2024-02-15T10:33:03;5.60;;;2.47;;
21326;SDS011;10822;51.532;6.770;2024-02-15T10:35:29;5.88;;;2.22;;
21326;SDS011;10822;51.532;6.770;2024-02-15T10:38:05;7.35;;;3.38;;
21326;SDS011;10822;51.532;6.770;2024-02-15T10:40:35;7.10;;;2.88;;
21326;SDS011;10822;51.532;6.770;2024-02-15T10:43:04;5.10;;;2.25;;
21326;SDS011;10822;51.532;6.770;2024-02-15T10:45:31;6.03;;;2.85;;
21326;SDS011;10822;51.532;6.770;2024-02-15T10:47:57;6.50;;;2.35;;
21326;SDS011;10822;51.532;6.770;2024-02-15T10:50:24;5.70;;;2.75;;
21326;SDS011;10822;51.532;6.770;2024-02-15T10:52:54;6.18;;;2.83;;
21326;SDS011;10822;51.532;6.770;2024-02-15T10:57:55;5.45;;;2.20;;
21326;SDS011;10822;51.532;6.770;2024-02-15T11:00:24;6.47;;;2.17;;
21326;SDS011;10822;51.532;6.770;2024-02-15T11:02:56;5.13;;;2.35;;
21326;SDS011;10822;51.532;6.770;2024-02-15T11:05:23;3.83;;;2.15;;
21326;SDS011;10822;51.532;6.770;2024-02-15T11:07:49;6.68;;;2.58;;
21326;SDS011;10822;51.532;6.770;2024-02-15T11:10:16;5.40;;;2.42;;
21326;SDS011;10822;51.532;6.770;2024-02-15T11:12:42;5.28;;;2.15;;
21326;SDS011;10822;51.532;6.770;2024-02-15T11:15:09;6.30;;;2.40;;
21326;SDS011;10822;51.532;6.770;2024-02-15T11:20:08;4.72;;;2.10;;
21326;SDS011;10822;51.532;6.770;2024-02-15T11:22:36;5.97;;;2.70;;
21326;SDS011;10822;51.532;6.770;2024-02-15T11:25:02;4.38;;;2.35;;
21326;SDS011;10822;51.532;6.770;2024-02-15T11:27:33;5.07;;;2.00;;
21326;SDS011;10822;51.532;6.770;2024-02-15T11:30:02;5.45;;;2.30;;
21326;SDS011;10822;51.532;6.770;2024-02-15T11:32:35;6.93;;;2.30;;
21326;SDS011;10822;51.532;6.770;2024-02-15T11:35:05;6.05;;;2.30;;
21326;SDS011;10822;51.532;6.770;2024-02-15T11:42:59;3.95;;;1.92;;
21326;SDS011;10822;51.532;6.770;2024-02-15T11:45:25;4.70;;;1.90;;
21326;SDS011;10822;51.532;6.770;2024-02-15T11:47:57;4.30;;;2.33;;
21326;SDS011;10822;51.532;6.770;2024-02-15T11:50:22;6.63;;;2.40;;
21326;SDS011;10822;51.532;6.770;2024-02-15T11:52:50;4.78;;;2.00;;
21326;SDS011;10822;51.532;6.770;2024-02-15T11:55:20;5.43;;;2.10;;
21326;SDS011;10822;51.532;6.770;2024-02-15T11:57:56;5.97;;;1.90;;
21326;SDS011;10822;51.532;6.770;2024-02-15T12:00:34;5.22;;;1.85;;
21326;SDS011;10822;51.532;6.770;2024-02-15T12:03:19;5.57;;;1.92;;
21326;SDS011;10822;51.532;6.770;2024-02-15T12:06:04;5.22;;;1.90;;
21326;SDS011;10822;51.532;6.770;2024-02-15T12:08:50;8.38;;;2.33;;
21326;SDS011;10822;51.532;6.770;2024-02-15T12:11:35;3.92;;;1.90;;
21326;SDS011;10822;51.532;6.770;2024-02-15T12:14:20;5.25;;;1.95;;
21326;SDS011;10822;51.532;6.770;2024-02-15T12:17:05;5.90;;;1.85;;
21326;SDS011;10822;51.532;6.770;2024-02-15T12:19:51;3.28;;;1.60;;
21326;SDS011;10822;51.532;6.770;2024-02-15T12:22:25;4.18;;;1.70;;
21326;SDS011;10822;51.532;6.770;2024-02-15T12:24:56;4.68;;;1.80;;
21326;SDS011;10822;51.532;6.770;2024-02-15T12:27:22;3.25;;;1.90;;
21326;SDS011;10822;51.532;6.770;2024-02-15T12:29:52;4.68;;;1.42;;
21326;SDS011;10822;51.532;6.770;2024-02-15T12:32:22;6.00;;;1.80;;
21326;SDS011;10822;51.532;6.770;2024-02-15T12:34:48;5.28;;;2.22;;
21326;SDS011;10822;51.532;6.770;2024-02-15T12:37:14;5.63;;;1.40;;
21326;SDS011;10822;51.532;6.770;2024-02-15T12:39:43;6.75;;;1.70;;
21326;SDS011;10822;51.532;6.770;2024-02-15T12:42:09;5.40;;;1.85;;
21326;SDS011;10822;51.532;6.770;2024-02-15T12:44:35;6.32;;;1.63;;
21326;SDS011;10822;51.532;6.770;2024-02-15T12:47:01;3.42;;;1.67;;
21326;SDS011;10822;51.532;6.770;2024-02-15T12:49:28;4.18;;;1.60;;
21326;SDS011;10822;51.532;6.770;2024-02-15T12:52:32;3.65;;;1.65;;
21326;SDS011;10822;51.532;6.770;2024-02-15T12:54:41;2.95;;;1.75;;
21326;SDS011;10822;51.532;6.770;2024-02-15T12:57:07;7.03;;;1.65;;
21326;SDS011;10822;51.532;6.770;2024-02-15T12:59:38;4.45;;;1.63;;
21326;SDS011;10822;51.532;6.770;2024-02-15T13:02:04;5.90;;;1.80;;
21326;SDS011;10822;51.532;6.770;2024-02-15T13:04:30;3.10;;;1.48;;
21326;SDS011;10822;51.532;6.770;2024-02-15T13:06:56;3.55;;;1.50;;
21326;SDS011;10822;51.532;6.770;2024-02-15T13:09:22;7.07;;;1.80;;
21326;SDS011;10822;51.532;6.770;2024-02-15T13:11:48;5.75;;;1.67;;
21326;SDS011;10822;51.532;6.770;2024-02-15T13:14:15;3.03;;;1.58;;
21326;SDS011;10822;51.532;6.770;2024-02-15T13:16:41;4.50;;;1.60;;
21326;SDS011;10822;51.532;6.770;2024-02-15T13:19:09;2.85;;;1.30;;
21326;SDS011;10822;51.532;6.770;2024-02-15T13:21:35;6.55;;;1.98;;
21326;SDS011;10822;51.532;6.770;2024-02-15T13:24:01;3.22;;;1.50;;
21326;SDS011;10822;51.532;6.770;2024-02-15T13:26:30;4.13;;;1.40;;
21326;SDS011;10822;51.532;6.770;2024-02-15T13:28:57;5.28;;;1.60;;
21326;SDS011;10822;51.532;6.770;2024-02-15T13:31:23;3.42;;;1.55;;
21326;SDS011;10822;51.532;6.770;2024-02-15T13:33:49;3.80;;;1.50;;
21326;SDS011;10822;51.532;6.770;2024-02-15T13:36:15;6.15;;;1.90;;
21326;SDS011;10822;51.532;6.770;2024-02-15T13:38:41;2.15;;;1.30;;
21326;SDS011;10822;51.532;6.770;2024-02-15T13:41:08;4.82;;;1.58;;
21326;SDS011;10822;51.532;6.770;2024-02-15T13:43:34;4.82;;;1.55;;
21326;SDS011;10822;51.532;6.770;2024-02-15T13:46:00;8.35;;;1.77;;
21326;SDS011;10822;51.532;6.770;2024-02-15T13:48:30;4.28;;;1.50;;
21326;SDS011;10822;51.532;6.770;2024-02-15T13:50:56;5.60;;;1.70;;
21326;SDS011;10822;51.532;6.770;2024-02-15T13:53:23;3.75;;;2.05;;
21326;SDS011;10822;51.532;6.770;2024-02-15T13:55:50;6.18;;;2.00;;
21326;SDS011;10822;51.532;6.770;2024-02-15T13:58:17;3.72;;;1.40;;
21326;SDS011;10822;51.532;6.770;2024-02-15T14:00:43;7.85;;;1.50;;
21326;SDS011;10822;51.532;6.770;2024-02-15T14:03:10;3.03;;;1.20;;
21326;SDS011;10822;51.532;6.770;2024-02-15T14:05:36;5.93;;;1.40;;
21326;SDS011;10822;51.532;6.770;2024-02-15T14:08:05;4.18;;;1.40;;
21326;SDS011;10822;51.532;6.770;2024-02-15T14:10:32;7.72;;;2.00;;
21326;SDS011;10822;51.532;6.770;2024-02-15T14:13:00;4.80;;;1.42;;
21326;SDS011;10822;51.532;6.770;2024-02-15T14:15:36;3.50;;;1.00;;
21326;SDS011;10822;51.532;6.770;2024-02-15T14:18:09;5.03;;;1.48;;
21326;SDS011;10822;51.532;6.770;2024-02-15T14:20:36;6.40;;;1.70;;
21326;SDS011;10822;51.532;6.770;2024-02-15T14:23:02;5.30;;;1.30;;
21326;SDS011;10822;51.532;6.770;2024-02-15T14:25:31;4.22;;;1.67;;
21326;SDS011;10822;51.532;6.770;2024-02-15T14:27:57;4.55;;;1.33;;
21326;SDS011;10822;51.532;6.770;2024-02-15T14:30:24;2.78;;;1.15;;
21326;SDS011;10822;51.532;6.770;2024-02-15T14:33:09;3.05;;;1.27;;
21326;SDS011;10822;51.532;6.770;2024-02-15T14:35:40;3.78;;;1.25;;
21326;SDS011;10822;51.532;6.770;2024-02-15T14:38:10;4.32;;;1.10;;
21326;SDS011;10822;51.532;6.770;2024-02-15T14:40:37;4.88;;;1.38;;
21326;SDS011;10822;51.532;6.770;2024-02-15T14:43:03;4.18;;;1.30;;
21326;SDS011;10822;51.532;6.770;2024-02-15T14:45:30;2.53;;;1.27;;
21326;SDS011;10822;51.532;6.770;2024-02-15T14:47:56;3.30;;;1.40;;
21326;SDS011;10822;51.532;6.770;2024-02-15T14:50:23;4.90;;;1.70;;
21326;SDS011;10822;51.532;6.770;2024-02-15T14:52:49;3.33;;;1.40;;
21326;SDS011;10822;51.532;6.770;2024-02-15T14:55:15;2.97;;;1.02;;
21326;SDS011;10822;51.532;6.770;2024-02-15T14:57:42;3.55;;;1.20;;